sensor_id;sensor_type;location;lat;lon;timestamp;P1;durP1;ratioP1;P2;durP2;ratioP2
20026;SDS011;10174;42.688;23.344;2023-07-20T00:01:43;18.75;;;3.47;;
20026;SDS011;10174;42.688;23.344;2023-07-20T00:04:09;16.95;;;3.03;;
20026;SDS011;10174;42.688;23.344;2023-07-20T00:06:35;14.32;;;3.15;;
20026;SDS011;10174;42.688;23.344;2023-07-20T00:09:00;15.75;;;4.22;;
20026;SDS011;10174;42.688;23.344;2023-07-20T00:11:26;14.90;;;3.70;;
20026;SDS011;10174;42.688;23.344;2023-07-20T00:13:52;15.82;;;3.05;;
20026;SDS011;10174;42.688;23.344;2023-07-20T00:16:18;17.67;;;3.63;;
20026;SDS011;10174;42.688;23.344;2023-07-20T00:18:43;18.23;;;3.75;;
20026;SDS011;10174;42.688;23.344;2023-07-20T00:21:09;14.55;;;3.40;;
20026;SDS011;10174;42.688;23.344;2023-07-20T00:23:34;13.80;;;3.67;;
20026;SDS011;10174;42.688;23.344;2023-07-20T00:26:00;11.07;;;3.20;;
20026;SDS011;10174;42.688;23.344;2023-07-20T00:28:25;15.55;;;3.90;;
20026;SDS011;10174;42.688;23.344;2023-07-20T00:30:51;17.20;;;3.60;;
20026;SDS011;10174;42.688;23.344;2023-07-20T00:33:17;13.00;;;3.92;;
20026;SDS011;10174;42.688;23.344;2023-07-20T00:35:43;17.67;;;3.50;;
20026;SDS011;10174;42.688;23.344;2023-07-20T00:38:09;12.88;;;3.38;;
20026;SDS011;10174;42.688;23.344;2023-07-20T00:40:38;14.07;;;3.55;;
20026;SDS011;10174;42.688;23.344;2023-07-20T00:43:04;12.48;;;3.13;;
20026;SDS011;10174;42.688;23.344;2023-07-20T00:45:30;12.90;;;3.10;;
20026;SDS011;10174;42.688;23.344;2023-07-20T00:47:57;12.88;;;2.72;;
20026;SDS011;10174;42.688;23.344;2023-07-20T00:50:23;11.52;;;2.97;;
20026;SDS011;10174;42.688;23.344;2023-07-20T00:52:49;16.85;;;3.78;;
20026;SDS011;10174;42.688;23.344;2023-07-20T00:55:14;25.08;;;3.80;;
20026;SDS011;10174;42.688;23.344;2023-07-20T00:57:40;11.98;;;3.00;;
20026;SDS011;10174;42.688;23.344;2023-07-20T01:00:06;11.38;;;3.10;;
20026;SDS011;10174;42.688;23.344;2023-07-20T01:02:32;18.83;;;3.67;;
20026;SDS011;10174;42.688;23.344;2023-07-20T01:04:58;10.48;;;3.47;;
20026;SDS011;10174;42.688;23.344;2023-07-20T01:13:02;19.50;;;3.75;;
20026;SDS011;10174;42.688;23.344;2023-07-20T01:15:31;7.82;;;2.95;;
20026;SDS011;10174;42.688;23.344;2023-07-20T01:17:59;13.60;;;3.47;;
20026;SDS011;10174;42.688;23.344;2023-07-20T01:20:26;17.73;;;3.35;;
20026;SDS011;10174;42.688;23.344;2023-07-20T01:31:33;13.52;;;3.25;;
20026;SDS011;10174;42.688;23.344;2023-07-20T01:34:01;10.20;;;2.97;;
20026;SDS011;10174;42.688;23.344;2023-07-20T01:36:30;19.17;;;3.72;;
20026;SDS011;10174;42.688;23.344;2023-07-20T01:38:58;12.98;;;3.50;;
20026;SDS011;10174;42.688;23.344;2023-07-20T01:41:24;19.75;;;3.45;;
20026;SDS011;10174;42.688;23.344;2023-07-20T01:43:49;22.08;;;3.65;;
20026;SDS011;10174;42.688;23.344;2023-07-20T01:46:14;16.30;;;3.60;;
20026;SDS011;10174;42.688;23.344;2023-07-20T01:48:40;23.00;;;4.45;;
20026;SDS011;10174;42.688;23.344;2023-07-20T01:51:05;12.18;;;3.58;;
20026;SDS011;10174;42.688;23.344;2023-07-20T01:53:31;19.23;;;3.97;;
20026;SDS011;10174;42.688;23.344;2023-07-20T01:55:56;16.25;;;3.88;;
20026;SDS011;10174;42.688;23.344;2023-07-20T01:58:22;15.45;;;3.60;;
20026;SDS011;10174;42.688;23.344;2023-07-20T02:00:48;17.13;;;3.95;;
20026;SDS011;10174;42.688;23.344;2023-07-20T02:03:13;15.85;;;4.25;;
20026;SDS011;10174;42.688;23.344;2023-07-20T02:05:39;14.15;;;3.55;;
20026;SDS011;10174;42.688;23.344;2023-07-20T02:08:04;16.90;;;3.70;;
20026;SDS011;10174;42.688;23.344;2023-07-20T02:10:30;17.30;;;4.13;;
20026;SDS011;10174;42.688;23.344;2023-07-20T02:12:55;18.77;;;4.05;;
20026;SDS011;10174;42.688;23.344;2023-07-20T02:15:21;15.25;;;4.45;;
20026;SDS011;10174;42.688;23.344;2023-07-20T02:17:47;14.35;;;4.38;;
20026;SDS011;10174;42.688;23.344;2023-07-20T02:20:12;18.30;;;5.00;;
20026;SDS011;10174;42.688;23.344;2023-07-20T02:22:38;29.52;;;4.10;;
20026;SDS011;10174;42.688;23.344;2023-07-20T02:25:04;19.50;;;4.50;;
20026;SDS011;10174;42.688;23.344;2023-07-20T02:27:32;8.13;;;3.60;;
20026;SDS011;10174;42.688;23.344;2023-07-20T02:29:58;22.10;;;4.32;;
20026;SDS011;10174;42.688;23.344;2023-07-20T02:32:23;9.32;;;3.80;;
20026;SDS011;10174;42.688;23.344;2023-07-20T02:34:48;19.17;;;4.00;;
20026;SDS011;10174;42.688;23.344;2023-07-20T02:37:14;18.00;;;4.53;;
20026;SDS011;10174;42.688;23.344;2023-07-20T02:39:41;20.20;;;4.30;;
20026;SDS011;10174;42.688;23.344;2023-07-20T02:42:06;15.23;;;4.10;;
20026;SDS011;10174;42.688;23.344;2023-07-20T02:44:31;21.38;;;4.10;;
20026;SDS011;10174;42.688;23.344;2023-07-20T02:46:57;20.98;;;5.07;;
20026;SDS011;10174;42.688;23.344;2023-07-20T02:49:22;16.13;;;4.32;;
20026;SDS011;10174;42.688;23.344;2023-07-20T02:51:48;18.55;;;5.63;;
20026;SDS011;10174;42.688;23.344;2023-07-20T02:54:13;17.30;;;4.40;;
20026;SDS011;10174;42.688;23.344;2023-07-20T02:56:38;16.30;;;4.68;;
20026;SDS011;10174;42.688;23.344;2023-07-20T02:59:04;17.25;;;4.07;;
20026;SDS011;10174;42.688;23.344;2023-07-20T03:01:29;14.10;;;4.00;;
20026;SDS011;10174;42.688;23.344;2023-07-20T03:03:55;18.27;;;4.55;;
20026;SDS011;10174;42.688;23.344;2023-07-20T03:06:21;22.85;;;4.78;;
20026;SDS011;10174;42.688;23.344;2023-07-20T03:08:46;15.30;;;4.10;;
20026;SDS011;10174;42.688;23.344;2023-07-20T03:11:17;17.95;;;4.40;;
20026;SDS011;10174;42.688;23.344;2023-07-20T03:13:43;15.05;;;4.15;;
20026;SDS011;10174;42.688;23.344;2023-07-20T03:16:10;25.70;;;4.80;;
20026;SDS011;10174;42.688;23.344;2023-07-20T03:18:40;26.13;;;4.63;;
20026;SDS011;10174;42.688;23.344;2023-07-20T03:21:06;15.85;;;4.18;;
20026;SDS011;10174;42.688;23.344;2023-07-20T03:23:33;21.38;;;5.60;;
20026;SDS011;10174;42.688;23.344;2023-07-20T03:25:59;14.55;;;4.57;;
20026;SDS011;10174;42.688;23.344;2023-07-20T03:28:25;19.52;;;5.45;;
20026;SDS011;10174;42.688;23.344;2023-07-20T03:30:57;23.38;;;5.20;;
20026;SDS011;10174;42.688;23.344;2023-07-20T03:33:27;17.48;;;4.80;;
20026;SDS011;10174;42.688;23.344;2023-07-20T03:35:56;23.35;;;4.97;;
20026;SDS011;10174;42.688;23.344;2023-07-20T03:38:22;27.88;;;5.35;;
20026;SDS011;10174;42.688;23.344;2023-07-20T03:40:51;15.70;;;5.30;;
20026;SDS011;10174;42.688;23.344;2023-07-20T03:43:17;29.52;;;7.45;;
20026;SDS011;10174;42.688;23.344;2023-07-20T03:45:43;20.77;;;7.05;;
20026;SDS011;10174;42.688;23.344;2023-07-20T03:48:10;17.08;;;6.28;;
20026;SDS011;10174;42.688;23.344;2023-07-20T03:50:36;27.90;;;6.38;;
20026;SDS011;10174;42.688;23.344;2023-07-20T03:53:01;23.67;;;5.75;;
20026;SDS011;10174;42.688;23.344;2023-07-20T03:55:27;27.65;;;6.10;;
20026;SDS011;10174;42.688;23.344;2023-07-20T03:57:53;24.20;;;5.53;;
20026;SDS011;10174;42.688;23.344;2023-07-20T04:00:18;15.68;;;5.55;;
20026;SDS011;10174;42.688;23.344;2023-07-20T04:02:44;27.42;;;5.75;;
20026;SDS011;10174;42.688;23.344;2023-07-20T04:05:09;17.92;;;5.18;;
20026;SDS011;10174;42.688;23.344;2023-07-20T04:07:35;14.43;;;4.82;;
20026;SDS011;10174;42.688;23.344;2023-07-20T04:10:00;19.08;;;5.13;;
20026;SDS011;10174;42.688;23.344;2023-07-20T04:12:26;21.25;;;5.32;;
20026;SDS011;10174;42.688;23.344;2023-07-20T04:14:51;20.88;;;5.72;;
20026;SDS011;10174;42.688;23.344;2023-07-20T04:17:17;19.83;;;5.70;;
20026;SDS011;10174;42.688;23.344;2023-07-20T04:19:43;26.55;;;5.60;;
20026;SDS011;10174;42.688;23.344;2023-07-20T04:22:08;29.40;;;5.82;;
20026;SDS011;10174;42.688;23.344;2023-07-20T04:24:34;17.48;;;4.78;;
20026;SDS011;10174;42.688;23.344;2023-07-20T04:26:59;14.30;;;4.78;;
20026;SDS011;10174;42.688;23.344;2023-07-20T04:29:25;19.92;;;4.95;;
20026;SDS011;10174;42.688;23.344;2023-07-20T04:31:50;26.10;;;5.82;;
20026;SDS011;10174;42.688;23.344;2023-07-20T04:34:16;16.88;;;4.75;;
20026;SDS011;10174;42.688;23.344;2023-07-20T04:36:41;19.70;;;4.53;;
20026;SDS011;10174;42.688;23.344;2023-07-20T04:39:06;22.58;;;5.25;;
20026;SDS011;10174;42.688;23.344;2023-07-20T04:41:33;18.08;;;5.45;;
20026;SDS011;10174;42.688;23.344;2023-07-20T04:43:59;22.65;;;5.47;;
20026;SDS011;10174;42.688;23.344;2023-07-20T04:46:24;16.30;;;4.93;;
20026;SDS011;10174;42.688;23.344;2023-07-20T04:48:50;23.77;;;5.32;;
20026;SDS011;10174;42.688;23.344;2023-07-20T04:51:15;15.98;;;5.03;;
20026;SDS011;10174;42.688;23.344;2023-07-20T04:53:42;23.27;;;5.38;;
20026;SDS011;10174;42.688;23.344;2023-07-20T04:56:07;18.23;;;6.07;;
20026;SDS011;10174;42.688;23.344;2023-07-20T04:58:33;22.67;;;6.10;;
20026;SDS011;10174;42.688;23.344;2023-07-20T05:00:58;20.80;;;5.45;;
20026;SDS011;10174;42.688;23.344;2023-07-20T05:03:24;52.97;;;6.13;;
20026;SDS011;10174;42.688;23.344;2023-07-20T05:05:49;18.38;;;5.40;;
20026;SDS011;10174;42.688;23.344;2023-07-20T05:08:14;18.48;;;5.70;;
20026;SDS011;10174;42.688;23.344;2023-07-20T05:10:41;22.55;;;5.97;;
20026;SDS011;10174;42.688;23.344;2023-07-20T05:13:06;27.42;;;6.30;;
20026;SDS011;10174;42.688;23.344;2023-07-20T05:15:35;21.85;;;5.72;;
20026;SDS011;10174;42.688;23.344;2023-07-20T05:18:00;19.85;;;5.10;;
20026;SDS011;10174;42.688;23.344;2023-07-20T05:20:26;35.30;;;6.43;;
20026;SDS011;10174;42.688;23.344;2023-07-20T05:22:52;19.45;;;5.63;;
20026;SDS011;10174;42.688;23.344;2023-07-20T05:25:17;20.77;;;5.10;;
20026;SDS011;10174;42.688;23.344;2023-07-20T05:27:43;21.27;;;6.28;;
20026;SDS011;10174;42.688;23.344;2023-07-20T05:30:10;24.45;;;5.90;;
20026;SDS011;10174;42.688;23.344;2023-07-20T05:32:36;18.13;;;5.75;;
20026;SDS011;10174;42.688;23.344;2023-07-20T05:35:01;26.25;;;5.63;;
20026;SDS011;10174;42.688;23.344;2023-07-20T05:37:27;17.40;;;5.50;;
20026;SDS011;10174;42.688;23.344;2023-07-20T05:39:52;21.35;;;6.30;;
20026;SDS011;10174;42.688;23.344;2023-07-20T05:42:18;16.42;;;5.53;;
20026;SDS011;10174;42.688;23.344;2023-07-20T05:44:43;21.33;;;6.15;;
20026;SDS011;10174;42.688;23.344;2023-07-20T05:47:08;23.17;;;7.25;;
20026;SDS011;10174;42.688;23.344;2023-07-20T05:49:34;20.65;;;6.65;;
20026;SDS011;10174;42.688;23.344;2023-07-20T05:52:00;23.33;;;5.20;;
20026;SDS011;10174;42.688;23.344;2023-07-20T05:54:26;27.45;;;6.18;;
20026;SDS011;10174;42.688;23.344;2023-07-20T05:56:52;30.25;;;7.18;;
20026;SDS011;10174;42.688;23.344;2023-07-20T05:59:18;20.73;;;5.53;;
20026;SDS011;10174;42.688;23.344;2023-07-20T06:01:44;21.75;;;5.68;;
20026;SDS011;10174;42.688;23.344;2023-07-20T06:04:10;22.15;;;7.35;;
20026;SDS011;10174;42.688;23.344;2023-07-20T06:06:36;19.45;;;5.30;;
20026;SDS011;10174;42.688;23.344;2023-07-20T06:09:01;20.92;;;5.35;;
20026;SDS011;10174;42.688;23.344;2023-07-20T06:11:29;17.88;;;5.15;;
20026;SDS011;10174;42.688;23.344;2023-07-20T06:13:55;20.15;;;5.47;;
20026;SDS011;10174;42.688;23.344;2023-07-20T06:16:21;16.17;;;6.32;;
20026;SDS011;10174;42.688;23.344;2023-07-20T06:18:47;20.52;;;5.97;;
20026;SDS011;10174;42.688;23.344;2023-07-20T06:21:12;19.40;;;5.55;;
20026;SDS011;10174;42.688;23.344;2023-07-20T06:23:38;20.98;;;5.45;;
20026;SDS011;10174;42.688;23.344;2023-07-20T06:26:05;28.15;;;5.45;;
20026;SDS011;10174;42.688;23.344;2023-07-20T06:28:31;25.58;;;6.63;;
20026;SDS011;10174;42.688;23.344;2023-07-20T06:31:00;15.70;;;5.10;;
20026;SDS011;10174;42.688;23.344;2023-07-20T06:33:26;22.52;;;6.88;;
20026;SDS011;10174;42.688;23.344;2023-07-20T06:35:52;25.95;;;7.05;;
20026;SDS011;10174;42.688;23.344;2023-07-20T06:38:18;15.48;;;5.53;;
20026;SDS011;10174;42.688;23.344;2023-07-20T06:40:45;24.50;;;6.22;;
20026;SDS011;10174;42.688;23.344;2023-07-20T06:43:11;31.73;;;7.63;;
20026;SDS011;10174;42.688;23.344;2023-07-20T06:45:37;27.83;;;6.38;;
20026;SDS011;10174;42.688;23.344;2023-07-20T06:48:02;24.13;;;6.90;;
20026;SDS011;10174;42.688;23.344;2023-07-20T06:50:28;28.23;;;6.97;;
20026;SDS011;10174;42.688;23.344;2023-07-20T06:52:53;24.33;;;7.68;;
20026;SDS011;10174;42.688;23.344;2023-07-20T06:55:19;22.55;;;6.40;;
20026;SDS011;10174;42.688;23.344;2023-07-20T06:57:44;25.42;;;6.82;;
20026;SDS011;10174;42.688;23.344;2023-07-20T07:00:10;21.52;;;7.80;;
20026;SDS011;10174;42.688;23.344;2023-07-20T07:02:36;39.33;;;11.48;;
20026;SDS011;10174;42.688;23.344;2023-07-20T07:05:01;21.30;;;6.50;;
20026;SDS011;10174;42.688;23.344;2023-07-20T07:07:27;21.67;;;6.75;;
20026;SDS011;10174;42.688;23.344;2023-07-20T07:09:52;19.55;;;6.55;;
20026;SDS011;10174;42.688;23.344;2023-07-20T07:12:17;18.90;;;6.25;;
20026;SDS011;10174;42.688;23.344;2023-07-20T07:14:43;21.48;;;6.55;;
20026;SDS011;10174;42.688;23.344;2023-07-20T07:17:08;22.98;;;6.55;;
20026;SDS011;10174;42.688;23.344;2023-07-20T07:19:33;25.70;;;7.03;;
20026;SDS011;10174;42.688;23.344;2023-07-20T07:21:59;19.55;;;5.93;;
20026;SDS011;10174;42.688;23.344;2023-07-20T07:24:24;21.02;;;7.60;;
20026;SDS011;10174;42.688;23.344;2023-07-20T07:26:50;16.50;;;5.72;;
20026;SDS011;10174;42.688;23.344;2023-07-20T07:29:15;15.05;;;5.30;;
20026;SDS011;10174;42.688;23.344;2023-07-20T07:31:40;19.00;;;5.38;;
20026;SDS011;10174;42.688;23.344;2023-07-20T07:34:06;19.58;;;5.47;;
20026;SDS011;10174;42.688;23.344;2023-07-20T07:36:32;18.67;;;5.38;;
20026;SDS011;10174;42.688;23.344;2023-07-20T07:38:57;20.55;;;5.10;;
20026;SDS011;10174;42.688;23.344;2023-07-20T07:41:23;19.33;;;5.75;;
20026;SDS011;10174;42.688;23.344;2023-07-20T07:43:48;32.08;;;9.25;;
20026;SDS011;10174;42.688;23.344;2023-07-20T07:46:14;36.60;;;13.05;;
20026;SDS011;10174;42.688;23.344;2023-07-20T07:48:39;25.58;;;6.00;;
20026;SDS011;10174;42.688;23.344;2023-07-20T07:51:05;21.42;;;5.70;;
20026;SDS011;10174;42.688;23.344;2023-07-20T07:53:31;20.60;;;5.68;;
20026;SDS011;10174;42.688;23.344;2023-07-20T07:55:57;25.08;;;8.15;;
20026;SDS011;10174;42.688;23.344;2023-07-20T07:58:23;16.75;;;6.25;;
20026;SDS011;10174;42.688;23.344;2023-07-20T08:00:48;21.98;;;5.45;;
20026;SDS011;10174;42.688;23.344;2023-07-20T08:03:13;22.20;;;6.22;;
20026;SDS011;10174;42.688;23.344;2023-07-20T08:05:39;19.40;;;6.03;;
20026;SDS011;10174;42.688;23.344;2023-07-20T08:08:04;21.15;;;6.18;;
20026;SDS011;10174;42.688;23.344;2023-07-20T08:10:30;23.38;;;5.68;;
20026;SDS011;10174;42.688;23.344;2023-07-20T08:12:56;17.35;;;5.10;;
20026;SDS011;10174;42.688;23.344;2023-07-20T08:15:21;22.77;;;5.38;;
20026;SDS011;10174;42.688;23.344;2023-07-20T08:17:47;23.88;;;5.25;;
20026;SDS011;10174;42.688;23.344;2023-07-20T08:20:13;16.33;;;5.70;;
20026;SDS011;10174;42.688;23.344;2023-07-20T08:22:41;21.05;;;5.63;;
20026;SDS011;10174;42.688;23.344;2023-07-20T08:25:07;25.52;;;5.03;;
20026;SDS011;10174;42.688;23.344;2023-07-20T08:27:33;22.35;;;5.50;;
20026;SDS011;10174;42.688;23.344;2023-07-20T08:29:58;22.48;;;4.85;;
20026;SDS011;10174;42.688;23.344;2023-07-20T08:32:24;24.08;;;4.40;;
20026;SDS011;10174;42.688;23.344;2023-07-20T08:34:50;18.13;;;4.03;;
20026;SDS011;10174;42.688;23.344;2023-07-20T08:37:16;24.88;;;4.10;;
20026;SDS011;10174;42.688;23.344;2023-07-20T08:39:41;28.88;;;4.35;;
20026;SDS011;10174;42.688;23.344;2023-07-20T08:42:07;17.95;;;4.43;;
20026;SDS011;10174;42.688;23.344;2023-07-20T08:44:35;15.38;;;3.85;;
20026;SDS011;10174;42.688;23.344;2023-07-20T08:47:03;16.00;;;4.00;;
20026;SDS011;10174;42.688;23.344;2023-07-20T08:49:30;19.52;;;4.40;;
20026;SDS011;10174;42.688;23.344;2023-07-20T08:51:57;18.20;;;3.95;;
20026;SDS011;10174;42.688;23.344;2023-07-20T08:54:23;19.95;;;3.85;;
20026;SDS011;10174;42.688;23.344;2023-07-20T08:56:52;14.93;;;3.70;;
20026;SDS011;10174;42.688;23.344;2023-07-20T08:59:21;10.60;;;3.35;;
20026;SDS011;10174;42.688;23.344;2023-07-20T09:01:49;20.65;;;4.57;;
20026;SDS011;10174;42.688;23.344;2023-07-20T09:04:17;18.20;;;5.00;;
20026;SDS011;10174;42.688;23.344;2023-07-20T09:06:43;20.27;;;4.72;;
20026;SDS011;10174;42.688;23.344;2023-07-20T09:09:08;15.75;;;3.42;;
20026;SDS011;10174;42.688;23.344;2023-07-20T09:11:33;14.50;;;3.42;;
20026;SDS011;10174;42.688;23.344;2023-07-20T09:14:03;17.00;;;3.28;;
20026;SDS011;10174;42.688;23.344;2023-07-20T09:16:29;19.33;;;3.67;;
20026;SDS011;10174;42.688;23.344;2023-07-20T09:18:55;23.77;;;4.95;;
20026;SDS011;10174;42.688;23.344;2023-07-20T09:21:23;19.55;;;3.40;;
20026;SDS011;10174;42.688;23.344;2023-07-20T09:23:48;10.80;;;3.30;;
20026;SDS011;10174;42.688;23.344;2023-07-20T09:26:18;17.70;;;3.50;;
20026;SDS011;10174;42.688;23.344;2023-07-20T09:28:44;17.27;;;3.40;;
20026;SDS011;10174;42.688;23.344;2023-07-20T09:31:20;13.38;;;3.03;;
20026;SDS011;10174;42.688;23.344;2023-07-20T09:33:46;14.73;;;3.25;;
20026;SDS011;10174;42.688;23.344;2023-07-20T09:36:12;10.07;;;3.17;;
20026;SDS011;10174;42.688;23.344;2023-07-20T09:38:38;13.88;;;3.38;;
20026;SDS011;10174;42.688;23.344;2023-07-20T09:41:06;20.10;;;3.60;;
20026;SDS011;10174;42.688;23.344;2023-07-20T09:43:31;13.77;;;3.38;;
20026;SDS011;10174;42.688;23.344;2023-07-20T09:45:59;13.38;;;3.35;;
20026;SDS011;10174;42.688;23.344;2023-07-20T09:48:25;11.32;;;3.40;;
20026;SDS011;10174;42.688;23.344;2023-07-20T09:50:51;15.13;;;3.17;;
20026;SDS011;10174;42.688;23.344;2023-07-20T09:53:18;12.93;;;3.30;;
20026;SDS011;10174;42.688;23.344;2023-07-20T09:55:44;22.08;;;3.00;;
20026;SDS011;10174;42.688;23.344;2023-07-20T09:58:11;14.32;;;3.13;;
20026;SDS011;10174;42.688;23.344;2023-07-20T10:00:37;14.40;;;3.38;;
20026;SDS011;10174;42.688;23.344;2023-07-20T10:03:04;14.75;;;2.83;;
20026;SDS011;10174;42.688;23.344;2023-07-20T10:05:34;11.43;;;3.42;;
20026;SDS011;10174;42.688;23.344;2023-07-20T10:08:02;14.65;;;3.20;;
20026;SDS011;10174;42.688;23.344;2023-07-20T10:10:29;12.02;;;3.17;;
20026;SDS011;10174;42.688;23.344;2023-07-20T10:12:57;14.65;;;3.50;;
20026;SDS011;10174;42.688;23.344;2023-07-20T10:15:36;11.93;;;3.30;;
20026;SDS011;10174;42.688;23.344;2023-07-20T10:21:02;14.10;;;4.18;;
20026;SDS011;10174;42.688;23.344;2023-07-20T10:23:31;21.17;;;3.22;;
20026;SDS011;10174;42.688;23.344;2023-07-20T10:25:58;13.75;;;3.08;;
20026;SDS011;10174;42.688;23.344;2023-07-20T10:28:26;14.20;;;3.75;;
20026;SDS011;10174;42.688;23.344;2023-07-20T10:30:51;15.60;;;3.10;;
20026;SDS011;10174;42.688;23.344;2023-07-20T10:33:18;16.08;;;3.10;;
20026;SDS011;10174;42.688;23.344;2023-07-20T10:35:54;13.55;;;3.13;;
20026;SDS011;10174;42.688;23.344;2023-07-20T10:38:41;18.83;;;3.00;;
20026;SDS011;10174;42.688;23.344;2023-07-20T10:41:15;11.40;;;3.00;;
20026;SDS011;10174;42.688;23.344;2023-07-20T10:43:45;12.38;;;3.17;;
20026;SDS011;10174;42.688;23.344;2023-07-20T10:46:11;13.15;;;3.20;;
20026;SDS011;10174;42.688;23.344;2023-07-20T10:48:58;15.55;;;3.10;;
20026;SDS011;10174;42.688;23.344;2023-07-20T10:51:30;12.00;;;3.47;;
20026;SDS011;10174;42.688;23.344;2023-07-20T10:54:03;10.80;;;3.00;;
20026;SDS011;10174;42.688;23.344;2023-07-20T10:56:28;11.68;;;3.45;;
20026;SDS011;10174;42.688;23.344;2023-07-20T10:58:57;16.30;;;3.20;;
20026;SDS011;10174;42.688;23.344;2023-07-20T11:01:27;16.00;;;3.22;;
20026;SDS011;10174;42.688;23.344;2023-07-20T11:03:57;27.67;;;6.68;;
20026;SDS011;10174;42.688;23.344;2023-07-20T11:08:48;10.23;;;3.05;;
20026;SDS011;10174;42.688;23.344;2023-07-20T11:13:58;19.77;;;3.60;;
20026;SDS011;10174;42.688;23.344;2023-07-20T11:16:35;11.80;;;3.35;;
20026;SDS011;10174;42.688;23.344;2023-07-20T11:19:01;12.73;;;3.05;;
20026;SDS011;10174;42.688;23.344;2023-07-20T11:21:28;11.25;;;3.20;;
20026;SDS011;10174;42.688;23.344;2023-07-20T11:23:55;14.57;;;3.40;;
20026;SDS011;10174;42.688;23.344;2023-07-20T11:26:21;16.52;;;4.43;;
20026;SDS011;10174;42.688;23.344;2023-07-20T11:28:50;17.77;;;4.10;;
20026;SDS011;10174;42.688;23.344;2023-07-20T11:31:17;15.43;;;3.80;;
20026;SDS011;10174;42.688;23.344;2023-07-20T11:33:45;15.45;;;3.58;;
20026;SDS011;10174;42.688;23.344;2023-07-20T11:36:12;12.80;;;4.30;;
20026;SDS011;10174;42.688;23.344;2023-07-20T11:38:39;10.68;;;3.95;;
20026;SDS011;10174;42.688;23.344;2023-07-20T11:41:07;11.18;;;4.32;;
20026;SDS011;10174;42.688;23.344;2023-07-20T11:43:33;19.23;;;4.68;;
20026;SDS011;10174;42.688;23.344;2023-07-20T11:45:59;10.45;;;3.80;;
20026;SDS011;10174;42.688;23.344;2023-07-20T11:48:25;15.85;;;4.80;;
20026;SDS011;10174;42.688;23.344;2023-07-20T11:50:50;19.58;;;4.72;;
20026;SDS011;10174;42.688;23.344;2023-07-20T11:53:15;14.52;;;4.40;;
20026;SDS011;10174;42.688;23.344;2023-07-20T11:55:41;15.05;;;3.90;;
20026;SDS011;10174;42.688;23.344;2023-07-20T11:58:08;15.02;;;3.97;;
20026;SDS011;10174;42.688;23.344;2023-07-20T12:00:34;14.90;;;4.25;;
20026;SDS011;10174;42.688;23.344;2023-07-20T12:03:01;14.13;;;4.18;;
20026;SDS011;10174;42.688;23.344;2023-07-20T12:05:29;14.65;;;5.93;;
20026;SDS011;10174;42.688;23.344;2023-07-20T12:07:55;14.13;;;4.55;;
20026;SDS011;10174;42.688;23.344;2023-07-20T12:10:27;13.88;;;3.90;;
20026;SDS011;10174;42.688;23.344;2023-07-20T12:13:00;14.20;;;4.43;;
20026;SDS011;10174;42.688;23.344;2023-07-20T12:15:30;13.20;;;4.15;;
20026;SDS011;10174;42.688;23.344;2023-07-20T12:17:57;17.83;;;5.40;;
20026;SDS011;10174;42.688;23.344;2023-07-20T12:20:27;15.13;;;4.90;;
20026;SDS011;10174;42.688;23.344;2023-07-20T12:23:10;15.88;;;4.60;;
20026;SDS011;10174;42.688;23.344;2023-07-20T12:25:37;13.00;;;4.13;;
20026;SDS011;10174;42.688;23.344;2023-07-20T12:28:05;10.13;;;3.97;;
20026;SDS011;10174;42.688;23.344;2023-07-20T12:30:32;16.70;;;5.53;;
20026;SDS011;10174;42.688;23.344;2023-07-20T12:32:58;17.08;;;4.30;;
20026;SDS011;10174;42.688;23.344;2023-07-20T12:35:23;14.10;;;3.78;;
20026;SDS011;10174;42.688;23.344;2023-07-20T12:37:49;12.02;;;3.45;;
20026;SDS011;10174;42.688;23.344;2023-07-20T12:40:16;12.55;;;3.50;;
20026;SDS011;10174;42.688;23.344;2023-07-20T12:42:42;9.90;;;4.25;;
20026;SDS011;10174;42.688;23.344;2023-07-20T12:45:08;13.45;;;3.83;;
20026;SDS011;10174;42.688;23.344;2023-07-20T12:47:33;13.23;;;3.50;;
20026;SDS011;10174;42.688;23.344;2023-07-20T12:49:59;13.30;;;3.70;;
20026;SDS011;10174;42.688;23.344;2023-07-20T12:52:24;15.77;;;3.20;;
20026;SDS011;10174;42.688;23.344;2023-07-20T12:54:50;16.58;;;4.00;;
20026;SDS011;10174;42.688;23.344;2023-07-20T12:57:16;11.02;;;3.58;;
20026;SDS011;10174;42.688;23.344;2023-07-20T12:59:41;13.95;;;3.40;;
20026;SDS011;10174;42.688;23.344;2023-07-20T13:02:07;14.52;;;3.50;;
20026;SDS011;10174;42.688;23.344;2023-07-20T13:04:32;14.32;;;4.15;;
20026;SDS011;10174;42.688;23.344;2023-07-20T13:06:57;8.80;;;3.03;;
20026;SDS011;10174;42.688;23.344;2023-07-20T13:09:23;12.15;;;3.55;;
20026;SDS011;10174;42.688;23.344;2023-07-20T13:11:50;12.98;;;3.65;;
20026;SDS011;10174;42.688;23.344;2023-07-20T13:14:16;15.32;;;3.40;;
20026;SDS011;10174;42.688;23.344;2023-07-20T13:16:41;13.50;;;3.10;;
20026;SDS011;10174;42.688;23.344;2023-07-20T13:19:07;16.45;;;3.60;;
20026;SDS011;10174;42.688;23.344;2023-07-20T13:21:32;9.20;;;3.10;;
20026;SDS011;10174;42.688;23.344;2023-07-20T13:23:57;16.80;;;3.58;;
20026;SDS011;10174;42.688;23.344;2023-07-20T13:26:23;17.92;;;3.83;;
20026;SDS011;10174;42.688;23.344;2023-07-20T13:28:48;10.07;;;3.40;;
20026;SDS011;10174;42.688;23.344;2023-07-20T13:31:14;16.05;;;3.92;;
20026;SDS011;10174;42.688;23.344;2023-07-20T13:33:39;19.75;;;4.18;;
20026;SDS011;10174;42.688;23.344;2023-07-20T13:36:05;14.60;;;3.90;;
20026;SDS011;10174;42.688;23.344;2023-07-20T13:38:31;13.23;;;3.67;;
20026;SDS011;10174;42.688;23.344;2023-07-20T13:40:56;13.77;;;3.33;;
20026;SDS011;10174;42.688;23.344;2023-07-20T13:43:22;13.13;;;3.80;;
20026;SDS011;10174;42.688;23.344;2023-07-20T13:45:47;15.77;;;3.28;;
20026;SDS011;10174;42.688;23.344;2023-07-20T13:48:12;9.38;;;3.00;;
20026;SDS011;10174;42.688;23.344;2023-07-20T13:50:39;22.25;;;3.85;;
20026;SDS011;10174;42.688;23.344;2023-07-20T13:53:04;15.10;;;4.00;;
20026;SDS011;10174;42.688;23.344;2023-07-20T13:55:30;20.77;;;3.33;;
20026;SDS011;10174;42.688;23.344;2023-07-20T13:57:58;17.48;;;3.70;;
20026;SDS011;10174;42.688;23.344;2023-07-20T14:00:24;21.10;;;3.78;;
20026;SDS011;10174;42.688;23.344;2023-07-20T14:02:51;11.98;;;3.17;;
20026;SDS011;10174;42.688;23.344;2023-07-20T14:05:18;9.95;;;3.50;;
20026;SDS011;10174;42.688;23.344;2023-07-20T14:07:44;21.73;;;3.50;;
20026;SDS011;10174;42.688;23.344;2023-07-20T14:10:09;19.83;;;3.40;;
20026;SDS011;10174;42.688;23.344;2023-07-20T14:12:35;17.50;;;3.38;;
20026;SDS011;10174;42.688;23.344;2023-07-20T14:15:00;23.30;;;2.83;;
20026;SDS011;10174;42.688;23.344;2023-07-20T14:17:25;10.73;;;3.67;;
20026;SDS011;10174;42.688;23.344;2023-07-20T14:19:51;16.35;;;2.97;;
20026;SDS011;10174;42.688;23.344;2023-07-20T14:22:18;15.20;;;3.22;;
20026;SDS011;10174;42.688;23.344;2023-07-20T14:24:43;10.07;;;3.20;;
20026;SDS011;10174;42.688;23.344;2023-07-20T14:27:08;13.43;;;3.20;;
20026;SDS011;10174;42.688;23.344;2023-07-20T14:29:34;10.80;;;3.40;;
20026;SDS011;10174;42.688;23.344;2023-07-20T14:32:01;14.57;;;3.00;;
20026;SDS011;10174;42.688;23.344;2023-07-20T14:34:27;14.73;;;3.10;;
20026;SDS011;10174;42.688;23.344;2023-07-20T14:36:52;14.88;;;3.60;;
20026;SDS011;10174;42.688;23.344;2023-07-20T14:39:18;12.85;;;2.80;;